sensor_id;sensor_type;location;lat;lon;timestamp;temperature;humidity
54960;DHT22;40860;51.710;8.736;2023-04-03T00:02:20;3.30;90.70
54960;DHT22;40860;51.710;8.736;2023-04-03T00:06:25;3.30;90.80
54960;DHT22;40860;51.710;8.736;2023-04-03T00:10:28;3.30;91.10
54960;DHT22;40860;51.710;8.736;2023-04-03T00:14:32;3.20;91.10
54960;DHT22;40860;51.710;8.736;2023-04-03T00:18:37;3.10;91.20
54960;DHT22;40860;51.710;8.736;2023-04-03T00:22:40;3.10;91.40
54960;DHT22;40860;51.710;8.736;2023-04-03T00:26:43;3.00;91.70
54960;DHT22;40860;51.710;8.736;2023-04-03T00:30:45;2.90;91.80
54960;DHT22;40860;51.710;8.736;2023-04-03T00:34:50;2.90;92.00
54960;DHT22;40860;51.710;8.736;2023-04-03T00:38:52;2.80;92.40
54960;DHT22;40860;51.710;8.736;2023-04-03T00:42:58;2.70;92.70
54960;DHT22;40860;51.710;8.736;2023-04-03T00:47:02;2.70;92.70
54960;DHT22;40860;51.710;8.736;2023-04-03T00:51:10;2.70;92.80
54960;DHT22;40860;51.710;8.736;2023-04-03T00:55:14;2.70;92.80
54960;DHT22;40860;51.710;8.736;2023-04-03T00:59:20;2.70;92.90
54960;DHT22;40860;51.710;8.736;2023-04-03T01:03:26;2.70;92.80
54960;DHT22;40860;51.710;8.736;2023-04-03T01:07:31;2.60;92.70
54960;DHT22;40860;51.710;8.736;2023-04-03T01:11:36;2.60;92.80
54960;DHT22;40860;51.710;8.736;2023-04-03T01:15:39;2.60;92.90
54960;DHT22;40860;51.710;8.736;2023-04-03T01:19:47;2.50;93.10
54960;DHT22;40860;51.710;8.736;2023-04-03T01:24:16;2.50;93.20
54960;DHT22;40860;51.710;8.736;2023-04-03T01:28:23;2.40;93.30
54960;DHT22;40860;51.710;8.736;2023-04-03T01:32:27;2.40;93.50
54960;DHT22;40860;51.710;8.736;2023-04-03T01:36:31;2.40;93.50
54960;DHT22;40860;51.710;8.736;2023-04-03T01:40:34;2.30;93.60
54960;DHT22;40860;51.710;8.736;2023-04-03T01:44:37;2.30;93.80
54960;DHT22;40860;51.710;8.736;2023-04-03T01:48:42;2.20;93.90
54960;DHT22;40860;51.710;8.736;2023-04-03T01:52:47;2.10;94.10
54960;DHT22;40860;51.710;8.736;2023-04-03T01:56:50;2.00;94.20
54960;DHT22;40860;51.710;8.736;2023-04-03T02:00:54;2.00;94.40
54960;DHT22;40860;51.710;8.736;2023-04-03T02:04:58;1.90;94.50
54960;DHT22;40860;51.710;8.736;2023-04-03T02:09:02;1.80;94.70
54960;DHT22;40860;51.710;8.736;2023-04-03T02:13:04;1.70;95.00
54960;DHT22;40860;51.710;8.736;2023-04-03T02:17:07;1.60;95.00
54960;DHT22;40860;51.710;8.736;2023-04-03T02:21:11;1.60;95.20
54960;DHT22;40860;51.710;8.736;2023-04-03T02:25:14;1.50;95.30
54960;DHT22;40860;51.710;8.736;2023-04-03T02:29:19;1.50;95.50
54960;DHT22;40860;51.710;8.736;2023-04-03T02:33:22;1.50;95.50
54960;DHT22;40860;51.710;8.736;2023-04-03T02:37:27;1.50;95.70
54960;DHT22;40860;51.710;8.736;2023-04-03T02:41:30;1.40;95.70
54960;DHT22;40860;51.710;8.736;2023-04-03T02:45:39;1.40;95.80
54960;DHT22;40860;51.710;8.736;2023-04-03T02:49:42;1.20;96.10
54960;DHT22;40860;51.710;8.736;2023-04-03T02:53:48;1.20;96.10
54960;DHT22;40860;51.710;8.736;2023-04-03T02:57:54;1.10;96.40
54960;DHT22;40860;51.710;8.736;2023-04-03T03:01:57;1.00;96.60
54960;DHT22;40860;51.710;8.736;2023-04-03T03:06:02;1.10;96.80
54960;DHT22;40860;51.710;8.736;2023-04-03T03:10:07;1.10;96.70
54960;DHT22;40860;51.710;8.736;2023-04-03T03:14:10;1.10;96.70
54960;DHT22;40860;51.710;8.736;2023-04-03T03:18:13;1.20;96.50
54960;DHT22;40860;51.710;8.736;2023-04-03T03:22:16;1.20;96.30
54960;DHT22;40860;51.710;8.736;2023-04-03T03:26:20;1.20;96.30
54960;DHT22;40860;51.710;8.736;2023-04-03T03:30:23;1.20;96.20
54960;DHT22;40860;51.710;8.736;2023-04-03T03:34:27;1.10;96.10
54960;DHT22;40860;51.710;8.736;2023-04-03T03:38:29;1.10;96.20
54960;DHT22;40860;51.710;8.736;2023-04-03T03:42:35;1.00;96.20
54960;DHT22;40860;51.710;8.736;2023-04-03T03:46:38;1.00;96.20
54960;DHT22;40860;51.710;8.736;2023-04-03T03:50:41;0.90;96.40
54960;DHT22;40860;51.710;8.736;2023-04-03T03:54:45;0.70;96.70
54960;DHT22;40860;51.710;8.736;2023-04-03T03:58:51;0.60;96.90
54960;DHT22;40860;51.710;8.736;2023-04-03T04:02:55;0.40;97.10
54960;DHT22;40860;51.710;8.736;2023-04-03T04:07:01;0.30;97.30
54960;DHT22;40860;51.710;8.736;2023-04-03T04:11:05;0.30;97.40
54960;DHT22;40860;51.710;8.736;2023-04-03T04:15:10;0.20;97.60
54960;DHT22;40860;51.710;8.736;2023-04-03T04:19:13;0.20;97.70
54960;DHT22;40860;51.710;8.736;2023-04-03T04:23:18;0.10;97.80
54960;DHT22;40860;51.710;8.736;2023-04-03T04:27:22;0.10;98.00
54960;DHT22;40860;51.710;8.736;2023-04-03T04:31:27;0.10;97.80
54960;DHT22;40860;51.710;8.736;2023-04-03T04:35:30;0.00;98.10
54960;DHT22;40860;51.710;8.736;2023-04-03T04:39:33;0.00;98.20
54960;DHT22;40860;51.710;8.736;2023-04-03T04:43:38;-0.10;98.10
54960;DHT22;40860;51.710;8.736;2023-04-03T04:47:42;-0.10;97.90
54960;DHT22;40860;51.710;8.736;2023-04-03T04:51:45;-0.10;98.10
54960;DHT22;40860;51.710;8.736;2023-04-03T04:55:57;-0.20;98.00
54960;DHT22;40860;51.710;8.736;2023-04-03T05:00:00;-0.20;98.10
54960;DHT22;40860;51.710;8.736;2023-04-03T05:04:05;-0.10;98.10
54960;DHT22;40860;51.710;8.736;2023-04-03T05:08:08;-0.10;98.00
54960;DHT22;40860;51.710;8.736;2023-04-03T05:12:13;-0.10;98.10
54960;DHT22;40860;51.710;8.736;2023-04-03T05:16:23;-0.10;98.00
54960;DHT22;40860;51.710;8.736;2023-04-03T05:20:29;-0.20;98.00
54960;DHT22;40860;51.710;8.736;2023-04-03T05:24:32;-0.10;98.20
54960;DHT22;40860;51.710;8.736;2023-04-03T05:28:36;0.00;98.00
54960;DHT22;40860;51.710;8.736;2023-04-03T05:32:40;0.10;97.80
54960;DHT22;40860;51.710;8.736;2023-04-03T05:36:54;0.20;97.50
54960;DHT22;40860;51.710;8.736;2023-04-03T05:40:58;0.40;97.20
54960;DHT22;40860;51.710;8.736;2023-04-03T05:45:04;0.50;97.00
54960;DHT22;40860;51.710;8.736;2023-04-03T05:49:08;0.50;96.80
54960;DHT22;40860;51.710;8.736;2023-04-03T05:53:17;0.60;96.80
54960;DHT22;40860;51.710;8.736;2023-04-03T05:57:21;0.60;96.70
54960;DHT22;40860;51.710;8.736;2023-04-03T06:01:25;0.60;96.60
54960;DHT22;40860;51.710;8.736;2023-04-03T06:05:28;0.70;96.70
54960;DHT22;40860;51.710;8.736;2023-04-03T06:09:33;0.70;96.70
54960;DHT22;40860;51.710;8.736;2023-04-03T06:13:36;0.80;96.70
54960;DHT22;40860;51.710;8.736;2023-04-03T06:17:39;1.00;96.20
54960;DHT22;40860;51.710;8.736;2023-04-03T06:21:43;1.10;96.50
54960;DHT22;40860;51.710;8.736;2023-04-03T06:25:47;2.10;95.50
54960;DHT22;40860;51.710;8.736;2023-04-03T06:29:50;2.70;93.90
54960;DHT22;40860;51.710;8.736;2023-04-03T06:33:52;5.30;93.40
54960;DHT22;40860;51.710;8.736;2023-04-03T06:37:55;7.30;84.50
54960;DHT22;40860;51.710;8.736;2023-04-03T06:41:59;5.80;79.00
54960;DHT22;40860;51.710;8.736;2023-04-03T06:46:13;5.60;80.20
54960;DHT22;40860;51.710;8.736;2023-04-03T06:54:20;5.10;82.40
54960;DHT22;40860;51.710;8.736;2023-04-03T06:58:24;5.10;83.20
54960;DHT22;40860;51.710;8.736;2023-04-03T07:02:27;5.80;81.10
54960;DHT22;40860;51.710;8.736;2023-04-03T07:06:30;6.50;78.40
54960;DHT22;40860;51.710;8.736;2023-04-03T07:10:33;6.70;76.20
54960;DHT22;40860;51.710;8.736;2023-04-03T07:14:38;6.70;73.00
54960;DHT22;40860;51.710;8.736;2023-04-03T07:18:41;6.10;71.70
54960;DHT22;40860;51.710;8.736;2023-04-03T07:22:43;6.00;73.10
54960;DHT22;40860;51.710;8.736;2023-04-03T07:26:49;6.00;73.50
54960;DHT22;40860;51.710;8.736;2023-04-03T07:31:00;6.20;72.40
54960;DHT22;40860;51.710;8.736;2023-04-03T07:35:04;6.40;72.60
54960;DHT22;40860;51.710;8.736;2023-04-03T07:39:06;6.80;72.50
54960;DHT22;40860;51.710;8.736;2023-04-03T07:43:10;7.40;69.60
54960;DHT22;40860;51.710;8.736;2023-04-03T07:51:18;7.60;63.30
54960;DHT22;40860;51.710;8.736;2023-04-03T07:55:21;7.70;63.00
54960;DHT22;40860;51.710;8.736;2023-04-03T07:59:24;7.80;60.80
54960;DHT22;40860;51.710;8.736;2023-04-03T08:03:28;7.70;57.10
54960;DHT22;40860;51.710;8.736;2023-04-03T08:07:31;7.50;55.30
54960;DHT22;40860;51.710;8.736;2023-04-03T08:11:34;7.90;57.90
54960;DHT22;40860;51.710;8.736;2023-04-03T08:15:38;8.20;56.00
54960;DHT22;40860;51.710;8.736;2023-04-03T08:19:42;8.20;53.30
54960;DHT22;40860;51.710;8.736;2023-04-03T08:23:48;8.10;55.40
54960;DHT22;40860;51.710;8.736;2023-04-03T08:27:51;8.40;53.20
54960;DHT22;40860;51.710;8.736;2023-04-03T08:35:58;8.40;51.90
54960;DHT22;40860;51.710;8.736;2023-04-03T08:40:01;8.80;51.30
54960;DHT22;40860;51.710;8.736;2023-04-03T08:44:15;8.80;50.30
54960;DHT22;40860;51.710;8.736;2023-04-03T08:48:22;8.50;50.00
54960;DHT22;40860;51.710;8.736;2023-04-03T08:52:34;8.70;51.60
54960;DHT22;40860;51.710;8.736;2023-04-03T08:56:39;8.80;51.50
54960;DHT22;40860;51.710;8.736;2023-04-03T09:00:45;8.50;50.90
54960;DHT22;40860;51.710;8.736;2023-04-03T09:04:48;8.60;51.50
54960;DHT22;40860;51.710;8.736;2023-04-03T09:09:09;8.70;51.40
54960;DHT22;40860;51.710;8.736;2023-04-03T09:13:27;9.10;50.70
54960;DHT22;40860;51.710;8.736;2023-04-03T09:17:41;9.30;49.90
54960;DHT22;40860;51.710;8.736;2023-04-03T09:21:49;9.30;49.10
54960;DHT22;40860;51.710;8.736;2023-04-03T09:25:58;9.00;50.50
54960;DHT22;40860;51.710;8.736;2023-04-03T09:30:03;9.50;50.30
54960;DHT22;40860;51.710;8.736;2023-04-03T09:34:15;9.10;48.00
54960;DHT22;40860;51.710;8.736;2023-04-03T09:38:21;8.90;48.10
54960;DHT22;40860;51.710;8.736;2023-04-03T09:42:29;8.90;48.90
54960;DHT22;40860;51.710;8.736;2023-04-03T09:46:34;9.00;48.50
54960;DHT22;40860;51.710;8.736;2023-04-03T09:50:53;8.90;49.40
54960;DHT22;40860;51.710;8.736;2023-04-03T09:55:06;9.00;47.70
54960;DHT22;40860;51.710;8.736;2023-04-03T09:59:15;8.70;48.10
54960;DHT22;40860;51.710;8.736;2023-04-03T10:03:24;8.90;48.00
54960;DHT22;40860;51.710;8.736;2023-04-03T10:07:33;8.50;47.70
54960;DHT22;40860;51.710;8.736;2023-04-03T10:11:37;8.50;47.30
54960;DHT22;40860;51.710;8.736;2023-04-03T10:15:45;8.90;46.40
54960;DHT22;40860;51.710;8.736;2023-04-03T10:19:54;9.00;46.00
54960;DHT22;40860;51.710;8.736;2023-04-03T10:24:08;8.90;46.80
54960;DHT22;40860;51.710;8.736;2023-04-03T10:28:17;8.80;46.90
54960;DHT22;40860;51.710;8.736;2023-04-03T10:32:45;8.80;47.10
54960;DHT22;40860;51.710;8.736;2023-04-03T10:36:52;9.00;48.00
54960;DHT22;40860;51.710;8.736;2023-04-03T10:41:02;9.20;47.70
54960;DHT22;40860;51.710;8.736;2023-04-03T10:45:18;9.20;47.90
54960;DHT22;40860;51.710;8.736;2023-04-03T10:49:38;8.60;48.40
54960;DHT22;40860;51.710;8.736;2023-04-03T10:53:57;7.70;48.90
54960;DHT22;40860;51.710;8.736;2023-04-03T10:58:04;7.40;50.10
54960;DHT22;40860;51.710;8.736;2023-04-03T11:02:16;7.10;50.90
54960;DHT22;40860;51.710;8.736;2023-04-03T11:06:23;7.40;51.40
54960;DHT22;40860;51.710;8.736;2023-04-03T11:10:39;7.50;51.10
54960;DHT22;40860;51.710;8.736;2023-04-03T11:14:43;7.80;50.60
54960;DHT22;40860;51.710;8.736;2023-04-03T11:18:52;8.40;51.50
54960;DHT22;40860;51.710;8.736;2023-04-03T11:23:01;8.90;50.40
54960;DHT22;40860;51.710;8.736;2023-04-03T11:27:09;8.90;49.80
54960;DHT22;40860;51.710;8.736;2023-04-03T11:31:29;9.00;49.40
54960;DHT22;40860;51.710;8.736;2023-04-03T11:35:36;9.00;48.50
54960;DHT22;40860;51.710;8.736;2023-04-03T11:39:48;9.20;49.80
54960;DHT22;40860;51.710;8.736;2023-04-03T11:43:58;8.90;49.00
54960;DHT22;40860;51.710;8.736;2023-04-03T11:48:03;8.40;49.00
54960;DHT22;40860;51.710;8.736;2023-04-03T11:52:59;7.90;50.30
54960;DHT22;40860;51.710;8.736;2023-04-03T12:01:45;7.80;50.70
54960;DHT22;40860;51.710;8.736;2023-04-03T12:05:49;7.90;50.60
54960;DHT22;40860;51.710;8.736;2023-04-03T12:10:01;7.80;50.30
54960;DHT22;40860;51.710;8.736;2023-04-03T12:14:05;7.60;52.70
54960;DHT22;40860;51.710;8.736;2023-04-03T12:18:58;7.60;53.70
54960;DHT22;40860;51.710;8.736;2023-04-03T12:23:23;7.90;53.80
54960;DHT22;40860;51.710;8.736;2023-04-03T12:27:42;8.10;52.20
54960;DHT22;40860;51.710;8.736;2023-04-03T12:31:53;8.00;52.20
54960;DHT22;40860;51.710;8.736;2023-04-03T12:36:05;8.00;51.70
54960;DHT22;40860;51.710;8.736;2023-04-03T12:40:16;7.90;51.60
54960;DHT22;40860;51.710;8.736;2023-04-03T12:44:45;7.80;52.10
54960;DHT22;40860;51.710;8.736;2023-04-03T12:48:51;7.80;52.30
54960;DHT22;40860;51.710;8.736;2023-04-03T12:52:58;7.90;52.40
54960;DHT22;40860;51.710;8.736;2023-04-03T12:57:13;8.00;52.10
54960;DHT22;40860;51.710;8.736;2023-04-03T13:01:24;7.80;51.40
54960;DHT22;40860;51.710;8.736;2023-04-03T13:05:27;7.60;51.10
54960;DHT22;40860;51.710;8.736;2023-04-03T13:09:31;7.70;51.00
54960;DHT22;40860;51.710;8.736;2023-04-03T13:13:34;8.00;51.40
54960;DHT22;40860;51.710;8.736;2023-04-03T13:17:41;8.20;51.40
54960;DHT22;40860;51.710;8.736;2023-04-03T13:21:44;8.40;51.80
54960;DHT22;40860;51.710;8.736;2023-04-03T13:25:48;8.30;50.90
54960;DHT22;40860;51.710;8.736;2023-04-03T13:29:53;8.00;51.00
54960;DHT22;40860;51.710;8.736;2023-04-03T13:34:03;7.80;51.60
54960;DHT22;40860;51.710;8.736;2023-04-03T13:38:23;7.90;51.90
54960;DHT22;40860;51.710;8.736;2023-04-03T13:42:28;8.10;50.90
54960;DHT22;40860;51.710;8.736;2023-04-03T13:46:32;8.00;50.90
54960;DHT22;40860;51.710;8.736;2023-04-03T13:50:51;8.20;50.90
54960;DHT22;40860;51.710;8.736;2023-04-03T13:54:57;8.20;51.20
54960;DHT22;40860;51.710;8.736;2023-04-03T13:59:05;8.10;50.40
54960;DHT22;40860;51.710;8.736;2023-04-03T14:03:13;8.30;50.20
54960;DHT22;40860;51.710;8.736;2023-04-03T14:07:18;8.40;49.70
54960;DHT22;40860;51.710;8.736;2023-04-03T14:11:26;8.30;50.10
54960;DHT22;40860;51.710;8.736;2023-04-03T14:15:31;8.40;50.00
54960;DHT22;40860;51.710;8.736;2023-04-03T14:19:35;8.60;50.00
54960;DHT22;40860;51.710;8.736;2023-04-03T14:23:39;8.60;50.40
54960;DHT22;40860;51.710;8.736;2023-04-03T14:27:44;8.40;50.50
54960;DHT22;40860;51.710;8.736;2023-04-03T14:31:47;8.40;49.80
54960;DHT22;40860;51.710;8.736;2023-04-03T14:36:01;8.40;49.40
54960;DHT22;40860;51.710;8.736;2023-04-03T14:40:08;8.60;48.70
54960;DHT22;40860;51.710;8.736;2023-04-03T14:44:11;8.80;48.10
54960;DHT22;40860;51.710;8.736;2023-04-03T14:48:17;9.20;48.60
54960;DHT22;40860;51.710;8.736;2023-04-03T14:52:23;9.80;48.10
54960;DHT22;40860;51.710;8.736;2023-04-03T14:56:28;10.10;48.30
54960;DHT22;40860;51.710;8.736;2023-04-03T15:00:31;10.70;46.70
54960;DHT22;40860;51.710;8.736;2023-04-03T15:04:34;10.80;46.50
54960;DHT22;40860;51.710;8.736;2023-04-03T15:08:37;10.40;47.00
54960;DHT22;40860;51.710;8.736;2023-04-03T15:12:41;10.10;47.60
54960;DHT22;40860;51.710;8.736;2023-04-03T15:16:44;9.90;47.90
54960;DHT22;40860;51.710;8.736;2023-04-03T15:20:47;9.80;47.40
54960;DHT22;40860;51.710;8.736;2023-04-03T15:24:50;9.90;47.60
54960;DHT22;40860;51.710;8.736;2023-04-03T15:28:54;9.80;46.70
54960;DHT22;40860;51.710;8.736;2023-04-03T15:32:57;9.90;46.80
54960;DHT22;40860;51.710;8.736;2023-04-03T15:37:00;9.90;46.70
54960;DHT22;40860;51.710;8.736;2023-04-03T15:41:03;10.00;46.40
54960;DHT22;40860;51.710;8.736;2023-04-03T15:45:09;9.80;47.00
54960;DHT22;40860;51.710;8.736;2023-04-03T15:49:12;9.60;47.40
54960;DHT22;40860;51.710;8.736;2023-04-03T15:53:15;9.60;46.00
54960;DHT22;40860;51.710;8.736;2023-04-03T15:57:18;9.50;45.80
54960;DHT22;40860;51.710;8.736;2023-04-03T16:01:22;9.60;46.80
54960;DHT22;40860;51.710;8.736;2023-04-03T16:05:27;9.60;47.00
54960;DHT22;40860;51.710;8.736;2023-04-03T16:09:30;10.00;46.60
54960;DHT22;40860;51.710;8.736;2023-04-03T16:13:33;10.30;46.30
54960;DHT22;40860;51.710;8.736;2023-04-03T16:17:38;10.40;45.70
54960;DHT22;40860;51.710;8.736;2023-04-03T16:21:43;10.20;45.10
54960;DHT22;40860;51.710;8.736;2023-04-03T16:25:46;10.10;45.70
54960;DHT22;40860;51.710;8.736;2023-04-03T16:29:49;9.70;46.30
54960;DHT22;40860;51.710;8.736;2023-04-03T16:33:54;9.50;46.70
54960;DHT22;40860;51.710;8.736;2023-04-03T16:37:57;9.30;47.00
54960;DHT22;40860;51.710;8.736;2023-04-03T16:42:00;9.30;46.50
54960;DHT22;40860;51.710;8.736;2023-04-03T16:46:03;9.50;46.50
54960;DHT22;40860;51.710;8.736;2023-04-03T16:50:08;9.60;46.00
54960;DHT22;40860;51.710;8.736;2023-04-03T16:54:12;9.30;46.30
54960;DHT22;40860;51.710;8.736;2023-04-03T16:58:15;8.80;47.10
54960;DHT22;40860;51.710;8.736;2023-04-03T17:02:18;8.70;48.30
54960;DHT22;40860;51.710;8.736;2023-04-03T17:06:22;8.50;48.40
54960;DHT22;40860;51.710;8.736;2023-04-03T17:10:25;8.30;48.90
54960;DHT22;40860;51.710;8.736;2023-04-03T17:14:28;8.00;49.10
54960;DHT22;40860;51.710;8.736;2023-04-03T17:18:32;7.90;49.40
54960;DHT22;40860;51.710;8.736;2023-04-03T17:22:36;7.60;50.00
54960;DHT22;40860;51.710;8.736;2023-04-03T17:26:40;7.40;50.30
54960;DHT22;40860;51.710;8.736;2023-04-03T17:30:46;7.10;50.30
54960;DHT22;40860;51.710;8.736;2023-04-03T17:34:48;7.00;50.90
54960;DHT22;40860;51.710;8.736;2023-04-03T17:38:52;6.90;50.80
54960;DHT22;40860;51.710;8.736;2023-04-03T17:42:56;6.70;50.90
54960;DHT22;40860;51.710;8.736;2023-04-03T17:46:59;6.60;51.40
54960;DHT22;40860;51.710;8.736;2023-04-03T17:51:04;6.50;51.50
54960;DHT22;40860;51.710;8.736;2023-04-03T17:55:08;6.40;51.90
54960;DHT22;40860;51.710;8.736;2023-04-03T17:59:11;6.30;52.50
54960;DHT22;40860;51.710;8.736;2023-04-03T18:03:15;6.20;52.80
54960;DHT22;40860;51.710;8.736;2023-04-03T18:07:18;6.10;52.80
54960;DHT22;40860;51.710;8.736;2023-04-03T18:11:25;6.00;53.60
54960;DHT22;40860;51.710;8.736;2023-04-03T18:15:30;5.90;54.20
54960;DHT22;40860;51.710;8.736;2023-04-03T18:19:33;5.80;53.90
54960;DHT22;40860;51.710;8.736;2023-04-03T18:23:39;5.70;54.20
54960;DHT22;40860;51.710;8.736;2023-04-03T18:27:45;5.60;54.40
54960;DHT22;40860;51.710;8.736;2023-04-03T18:31:51;5.60;54.60
54960;DHT22;40860;51.710;8.736;2023-04-03T18:35:55;5.50;55.00
54960;DHT22;40860;51.710;8.736;2023-04-03T18:39:58;5.40;55.20
54960;DHT22;40860;51.710;8.736;2023-04-03T18:44:06;5.40;55.50
54960;DHT22;40860;51.710;8.736;2023-04-03T18:48:09;5.30;55.70
54960;DHT22;40860;51.710;8.736;2023-04-03T18:52:12;5.20;56.20
54960;DHT22;40860;51.710;8.736;2023-04-03T18:56:15;5.10;56.40
54960;DHT22;40860;51.710;8.736;2023-04-03T19:00:19;5.10;56.70
54960;DHT22;40860;51.710;8.736;2023-04-03T19:04:25;5.00;57.00
54960;DHT22;40860;51.710;8.736;2023-04-03T19:08:29;4.90;57.40
54960;DHT22;40860;51.710;8.736;2023-04-03T19:12:32;4.90;57.60
54960;DHT22;40860;51.710;8.736;2023-04-03T19:16:37;4.80;58.10
54960;DHT22;40860;51.710;8.736;2023-04-03T19:20:40;4.70;58.70
54960;DHT22;40860;51.710;8.736;2023-04-03T19:24:43;4.70;59.00
54960;DHT22;40860;51.710;8.736;2023-04-03T19:28:46;4.60;59.30
54960;DHT22;40860;51.710;8.736;2023-04-03T19:32:53;4.50;59.70
54960;DHT22;40860;51.710;8.736;2023-04-03T19:36:56;4.40;60.30
54960;DHT22;40860;51.710;8.736;2023-04-03T19:40:59;4.30;61.10
54960;DHT22;40860;51.710;8.736;2023-04-03T19:45:03;4.20;61.90
54960;DHT22;40860;51.710;8.736;2023-04-03T19:49:07;4.10;62.60
54960;DHT22;40860;51.710;8.736;2023-04-03T19:53:10;4.00;64.10
54960;DHT22;40860;51.710;8.736;2023-04-03T19:57:19;3.80;64.80
54960;DHT22;40860;51.710;8.736;2023-04-03T20:01:22;3.70;65.90
54960;DHT22;40860;51.710;8.736;2023-04-03T20:05:28;3.60;66.50
54960;DHT22;40860;51.710;8.736;2023-04-03T20:09:31;3.50;67.60
54960;DHT22;40860;51.710;8.736;2023-04-03T20:13:35;3.50;68.00
54960;DHT22;40860;51.710;8.736;2023-04-03T20:17:39;3.40;68.20
54960;DHT22;40860;51.710;8.736;2023-04-03T20:21:44;3.30;68.80
54960;DHT22;40860;51.710;8.736;2023-04-03T20:25:47;3.20;69.40
54960;DHT22;40860;51.710;8.736;2023-04-03T20:30:11;3.20;70.40
54960;DHT22;40860;51.710;8.736;2023-04-03T20:34:14;3.10;71.50
54960;DHT22;40860;51.710;8.736;2023-04-03T20:38:19;3.00;71.70
54960;DHT22;40860;51.710;8.736;2023-04-03T20:42:22;3.00;72.10
54960;DHT22;40860;51.710;8.736;2023-04-03T20:46:25;3.00;72.40
54960;DHT22;40860;51.710;8.736;2023-04-03T20:50:49;2.90;73.20
54960;DHT22;40860;51.710;8.736;2023-04-03T20:54:53;2.80;73.30
54960;DHT22;40860;51.710;8.736;2023-04-03T20:58:56;2.80;73.70
54960;DHT22;40860;51.710;8.736;2023-04-03T21:02:59;2.70;74.20
54960;DHT22;40860;51.710;8.736;2023-04-03T21:20:32;2.30;76.90
54960;DHT22;40860;51.710;8.736;2023-04-03T21:24:35;2.40;76.70
54960;DHT22;40860;51.710;8.736;2023-04-03T21:28:42;2.40;76.90
54960;DHT22;40860;51.710;8.736;2023-04-03T21:32:45;2.30;77.10
54960;DHT22;40860;51.710;8.736;2023-04-03T21:36:49;2.30;77.10
54960;DHT22;40860;51.710;8.736;2023-04-03T21:40:55;2.30;77.40
54960;DHT22;40860;51.710;8.736;2023-04-03T21:44:58;2.30;77.20
54960;DHT22;40860;51.710;8.736;2023-04-03T21:49:04;2.20;77.40
54960;DHT22;40860;51.710;8.736;2023-04-03T21:53:13;2.20;77.40
54960;DHT22;40860;51.710;8.736;2023-04-03T21:57:17;2.20;77.80
54960;DHT22;40860;51.710;8.736;2023-04-03T22:01:25;2.10;78.40
54960;DHT22;40860;51.710;8.736;2023-04-03T22:05:30;2.00;79.10
54960;DHT22;40860;51.710;8.736;2023-04-03T22:09:38;1.90;79.80
54960;DHT22;40860;51.710;8.736;2023-04-03T22:13:42;1.90;79.90
54960;DHT22;40860;51.710;8.736;2023-04-03T22:17:45;1.90;80.20
54960;DHT22;40860;51.710;8.736;2023-04-03T22:21:49;1.80;80.60
54960;DHT22;40860;51.710;8.736;2023-04-03T22:26:02;1.90;80.30
54960;DHT22;40860;51.710;8.736;2023-04-03T22:30:06;1.80;80.10
54960;DHT22;40860;51.710;8.736;2023-04-03T22:34:09;1.80;80.40
54960;DHT22;40860;51.710;8.736;2023-04-03T22:38:12;1.70;80.70
54960;DHT22;40860;51.710;8.736;2023-04-03T22:42:20;1.70;81.30
54960;DHT22;40860;51.710;8.736;2023-04-03T22:46:23;1.70;81.30
54960;DHT22;40860;51.710;8.736;2023-04-03T22:50:26;1.70;81.10
54960;DHT22;40860;51.710;8.736;2023-04-03T22:54:53;1.70;81.00
54960;DHT22;40860;51.710;8.736;2023-04-03T22:59:31;1.70;81.30
54960;DHT22;40860;51.710;8.736;2023-04-03T23:03:34;1.60;81.50
54960;DHT22;40860;51.710;8.736;2023-04-03T23:07:37;1.60;81.80
54960;DHT22;40860;51.710;8.736;2023-04-03T23:11:40;1.50;82.30
54960;DHT22;40860;51.710;8.736;2023-04-03T23:15:51;1.50;82.70
54960;DHT22;40860;51.710;8.736;2023-04-03T23:19:54;1.40;83.00
54960;DHT22;40860;51.710;8.736;2023-04-03T23:23:57;1.40;83.50
54960;DHT22;40860;51.710;8.736;2023-04-03T23:28:00;1.40;83.90
54960;DHT22;40860;51.710;8.736;2023-04-03T23:32:05;1.40;84.70
54960;DHT22;40860;51.710;8.736;2023-04-03T23:36:08;1.30;84.90
54960;DHT22;40860;51.710;8.736;2023-04-03T23:40:11;1.20;84.70
54960;DHT22;40860;51.710;8.736;2023-04-03T23:44:14;1.20;85.10
54960;DHT22;40860;51.710;8.736;2023-04-03T23:48:18;1.20;85.20
54960;DHT22;40860;51.710;8.736;2023-04-03T23:52:21;1.10;85.60
54960;DHT22;40860;51.710;8.736;2023-04-03T23:56:24;1.10;85.60
